Castleconnell, Ireland
Current Conditions -  °F | °C
As of 5:00 PM on Thursday 23 Oct 2014 (Local Time) from EINN Reporting Station
Drizzle Drizzle  
Wind Chill: 57°   Ceiling: 800
Heat Index: 57°   Visibility: 1.1mi
Dew Point: 55°   Wind: 13mph
Humidity: 94%   Direction: 210°SSW
Pressure: 29.83"   Gusts: NA
Location:  52.71°N, 8.5°W
Report Text: EINN 231700Z 21011KT 1800 DZ FEW005 BKN008 14/13 Q1010 TEMPO 3000 BKN005
Loading
Personal Weather Stations






























Interactive Weather Map
Tropical Storm Tracking
New forecast layout! Learn more

10-Day Weather Forecast

Advertisements
Track Severe Weather on mobile